Terminal Aerodrome Forecast
Issued by NWS

Home | Current Version | Previous Version | Text Only | Print | Product List | Glossary On
Versions: 1 2 3 4 5 6 7 8 9 10 11 12 13 14 15 16 17 18 19 20 21 22 23 24 25 26 27 28 29 30 31 32 33
000
FTUS41 KBOX 280538
TAFACK
TAF
KACK 280538Z 2806/2906 15007KT 1SM BR OVC002
     FM280900 16009KT 1/2SM FG OVC002
     FM281200 20010KT 1SM -SHRA BR OVC002
     FM281400 21011KT 2SM BR VCSH OVC040
     FM281600 22012KT P6SM BKN040
     FM282000 23012KT P6SM SCT250=

USA.gov is the U.S. government's official web portal to all federal, state and local government web resources and services.